sensor_id;sensor_type;location;lat;lon;timestamp;P1;durP1;ratioP1;P2;durP2;ratioP2
7495;SDS011;3789;47.064;15.482;2022-09-09T00:05:04;1.55;;;1.20;;
7495;SDS011;3789;47.064;15.482;2022-09-09T00:07:58;1.30;;;1.10;;
7495;SDS011;3789;47.064;15.482;2022-09-09T00:10:41;1.20;;;1.10;;
7495;SDS011;3789;47.064;15.482;2022-09-09T00:13:21;3.27;;;1.10;;
7495;SDS011;3789;47.064;15.482;2022-09-09T00:16:24;0.90;;;0.90;;
7495;SDS011;3789;47.064;15.482;2022-09-09T00:24:49;1.20;;;1.10;;
7495;SDS011;3789;47.064;15.482;2022-09-09T00:27:38;0.97;;;0.90;;
7495;SDS011;3789;47.064;15.482;2022-09-09T00:30:22;1.17;;;1.07;;
7495;SDS011;3789;47.064;15.482;2022-09-09T00:33:03;2.20;;;1.03;;
7495;SDS011;3789;47.064;15.482;2022-09-09T00:35:53;2.20;;;0.93;;
7495;SDS011;3789;47.064;15.482;2022-09-09T00:38:38;1.67;;;1.10;;
7495;SDS011;3789;47.064;15.482;2022-09-09T00:41:29;2.43;;;1.27;;
7495;SDS011;3789;47.064;15.482;2022-09-09T00:44:35;3.03;;;1.00;;
7495;SDS011;3789;47.064;15.482;2022-09-09T00:47:44;1.33;;;0.90;;
7495;SDS011;3789;47.064;15.482;2022-09-09T00:53:39;1.30;;;1.20;;
7495;SDS011;3789;47.064;15.482;2022-09-09T00:56:27;2.37;;;1.30;;
7495;SDS011;3789;47.064;15.482;2022-09-09T01:02:39;3.63;;;1.27;;
7495;SDS011;3789;47.064;15.482;2022-09-09T01:11:55;3.27;;;1.80;;
7495;SDS011;3789;47.064;15.482;2022-09-09T01:14:05;2.97;;;1.20;;
7495;SDS011;3789;47.064;15.482;2022-09-09T01:16:45;1.10;;;1.00;;
7495;SDS011;3789;47.064;15.482;2022-09-09T01:26:50;1.70;;;1.10;;
7495;SDS011;3789;47.064;15.482;2022-09-09T01:28:49;1.20;;;1.10;;
7495;SDS011;3789;47.064;15.482;2022-09-09T01:31:32;3.63;;;1.17;;
7495;SDS011;3789;47.064;15.482;2022-09-09T01:34:15;2.03;;;1.40;;
7495;SDS011;3789;47.064;15.482;2022-09-09T01:36:43;0.90;;;0.90;;
7495;SDS011;3789;47.064;15.482;2022-09-09T01:39:18;1.10;;;1.00;;
7495;SDS011;3789;47.064;15.482;2022-09-09T01:41:47;1.50;;;1.20;;
7495;SDS011;3789;47.064;15.482;2022-09-09T01:44:14;3.10;;;1.53;;
7495;SDS011;3789;47.064;15.482;2022-09-09T01:46:44;1.53;;;1.30;;
7495;SDS011;3789;47.064;15.482;2022-09-09T01:49:11;1.90;;;1.60;;
7495;SDS011;3789;47.064;15.482;2022-09-09T01:51:39;2.90;;;1.80;;
7495;SDS011;3789;47.064;15.482;2022-09-09T01:54:09;2.23;;;2.00;;
7495;SDS011;3789;47.064;15.482;2022-09-09T02:02:26;3.27;;;2.10;;
7495;SDS011;3789;47.064;15.482;2022-09-09T02:07:48;2.30;;;2.10;;
7495;SDS011;3789;47.064;15.482;2022-09-09T02:10:21;3.37;;;2.30;;
7495;SDS011;3789;47.064;15.482;2022-09-09T02:13:05;4.50;;;2.07;;
7495;SDS011;3789;47.064;15.482;2022-09-09T02:18:10;2.57;;;2.10;;
7495;SDS011;3789;47.064;15.482;2022-09-09T02:20:40;2.30;;;2.10;;
7495;SDS011;3789;47.064;15.482;2022-09-09T02:23:10;2.33;;;2.00;;
7495;SDS011;3789;47.064;15.482;2022-09-09T02:25:39;2.97;;;1.50;;
7495;SDS011;3789;47.064;15.482;2022-09-09T02:28:08;1.50;;;1.40;;
7495;SDS011;3789;47.064;15.482;2022-09-09T02:30:37;3.47;;;1.30;;
7495;SDS011;3789;47.064;15.482;2022-09-09T02:33:06;2.13;;;1.43;;
7495;SDS011;3789;47.064;15.482;2022-09-09T02:35:37;1.90;;;1.60;;
7495;SDS011;3789;47.064;15.482;2022-09-09T02:38:05;1.63;;;1.40;;
7495;SDS011;3789;47.064;15.482;2022-09-09T02:40:35;4.87;;;1.93;;
7495;SDS011;3789;47.064;15.482;2022-09-09T02:43:02;3.63;;;2.10;;
7495;SDS011;3789;47.064;15.482;2022-09-09T02:45:36;2.53;;;2.20;;
7495;SDS011;3789;47.064;15.482;2022-09-09T02:51:10;2.87;;;1.87;;
7495;SDS011;3789;47.064;15.482;2022-09-09T02:56:52;2.00;;;1.80;;
7495;SDS011;3789;47.064;15.482;2022-09-09T02:59:21;2.50;;;1.57;;
7495;SDS011;3789;47.064;15.482;2022-09-09T03:01:48;2.70;;;1.60;;
7495;SDS011;3789;47.064;15.482;2022-09-09T03:04:15;2.20;;;2.00;;
7495;SDS011;3789;47.064;15.482;2022-09-09T03:06:43;2.50;;;2.30;;
7495;SDS011;3789;47.064;15.482;2022-09-09T03:09:10;2.50;;;2.10;;
7495;SDS011;3789;47.064;15.482;2022-09-09T03:11:37;3.53;;;1.73;;
7495;SDS011;3789;47.064;15.482;2022-09-09T03:14:05;2.90;;;2.30;;
7495;SDS011;3789;47.064;15.482;2022-09-09T03:16:32;2.23;;;1.93;;
7495;SDS011;3789;47.064;15.482;2022-09-09T03:19:01;3.17;;;1.90;;
7495;SDS011;3789;47.064;15.482;2022-09-09T03:21:28;1.87;;;1.63;;
7495;SDS011;3789;47.064;15.482;2022-09-09T03:23:55;1.60;;;1.50;;
7495;SDS011;3789;47.064;15.482;2022-09-09T03:26:23;3.87;;;1.80;;
7495;SDS011;3789;47.064;15.482;2022-09-09T03:28:52;2.23;;;1.50;;
7495;SDS011;3789;47.064;15.482;2022-09-09T03:31:19;2.90;;;1.57;;
7495;SDS011;3789;47.064;15.482;2022-09-09T03:33:47;2.50;;;1.80;;
7495;SDS011;3789;47.064;15.482;2022-09-09T03:36:14;2.70;;;1.70;;
7495;SDS011;3789;47.064;15.482;2022-09-09T03:38:41;1.60;;;1.50;;
7495;SDS011;3789;47.064;15.482;2022-09-09T03:41:08;3.80;;;2.00;;
7495;SDS011;3789;47.064;15.482;2022-09-09T03:43:35;2.03;;;1.83;;
7495;SDS011;3789;47.064;15.482;2022-09-09T03:46:04;2.17;;;1.80;;
7495;SDS011;3789;47.064;15.482;2022-09-09T03:48:31;2.90;;;1.63;;
7495;SDS011;3789;47.064;15.482;2022-09-09T03:50:58;2.10;;;2.00;;
7495;SDS011;3789;47.064;15.482;2022-09-09T03:53:27;3.00;;;1.90;;
7495;SDS011;3789;47.064;15.482;2022-09-09T03:55:56;3.27;;;2.23;;
7495;SDS011;3789;47.064;15.482;2022-09-09T03:58:26;4.70;;;2.40;;
7495;SDS011;3789;47.064;15.482;2022-09-09T04:00:58;2.90;;;2.60;;
7495;SDS011;3789;47.064;15.482;2022-09-09T04:03:28;3.47;;;2.57;;
7495;SDS011;3789;47.064;15.482;2022-09-09T04:05:56;2.70;;;2.50;;
7495;SDS011;3789;47.064;15.482;2022-09-09T04:08:25;2.87;;;2.60;;
7495;SDS011;3789;47.064;15.482;2022-09-09T04:10:53;5.07;;;2.87;;
7495;SDS011;3789;47.064;15.482;2022-09-09T04:13:24;4.03;;;3.30;;
7495;SDS011;3789;47.064;15.482;2022-09-09T04:15:53;3.70;;;3.40;;
7495;SDS011;3789;47.064;15.482;2022-09-09T04:18:22;3.60;;;3.30;;
7495;SDS011;3789;47.064;15.482;2022-09-09T04:20:51;4.77;;;3.60;;
7495;SDS011;3789;47.064;15.482;2022-09-09T04:23:19;3.70;;;3.10;;
7495;SDS011;3789;47.064;15.482;2022-09-09T04:25:48;4.43;;;3.40;;
7495;SDS011;3789;47.064;15.482;2022-09-09T04:28:18;7.60;;;3.87;;
7495;SDS011;3789;47.064;15.482;2022-09-09T04:30:47;5.57;;;3.30;;
7495;SDS011;3789;47.064;15.482;2022-09-09T04:33:14;3.40;;;3.10;;
7495;SDS011;3789;47.064;15.482;2022-09-09T04:35:44;3.70;;;3.40;;
7495;SDS011;3789;47.064;15.482;2022-09-09T04:38:14;6.20;;;2.93;;
7495;SDS011;3789;47.064;15.482;2022-09-09T04:40:43;4.20;;;2.70;;
7495;SDS011;3789;47.064;15.482;2022-09-09T04:43:10;2.97;;;2.60;;
7495;SDS011;3789;47.064;15.482;2022-09-09T04:45:40;3.03;;;2.57;;
7495;SDS011;3789;47.064;15.482;2022-09-09T04:48:08;3.20;;;2.77;;
7495;SDS011;3789;47.064;15.482;2022-09-09T04:50:36;3.17;;;2.80;;
7495;SDS011;3789;47.064;15.482;2022-09-09T04:53:03;3.83;;;2.50;;
7495;SDS011;3789;47.064;15.482;2022-09-09T04:55:34;2.47;;;2.00;;
7495;SDS011;3789;47.064;15.482;2022-09-09T04:58:05;2.20;;;2.03;;
7495;SDS011;3789;47.064;15.482;2022-09-09T05:00:34;2.43;;;1.70;;
7495;SDS011;3789;47.064;15.482;2022-09-09T05:03:03;4.23;;;1.80;;
7495;SDS011;3789;47.064;15.482;2022-09-09T05:05:32;1.93;;;1.47;;
7495;SDS011;3789;47.064;15.482;2022-09-09T05:08:03;1.90;;;1.60;;
7495;SDS011;3789;47.064;15.482;2022-09-09T05:10:32;3.07;;;2.03;;
7495;SDS011;3789;47.064;15.482;2022-09-09T05:13:02;1.73;;;1.60;;
7495;SDS011;3789;47.064;15.482;2022-09-09T05:15:31;2.37;;;1.90;;
7495;SDS011;3789;47.064;15.482;2022-09-09T05:18:01;2.33;;;2.00;;
7495;SDS011;3789;47.064;15.482;2022-09-09T05:20:30;3.73;;;2.27;;
7495;SDS011;3789;47.064;15.482;2022-09-09T05:22:58;3.90;;;2.27;;
7495;SDS011;3789;47.064;15.482;2022-09-09T05:25:25;3.23;;;2.20;;
7495;SDS011;3789;47.064;15.482;2022-09-09T05:27:52;2.73;;;2.23;;
7495;SDS011;3789;47.064;15.482;2022-09-09T05:30:20;2.30;;;2.10;;
7495;SDS011;3789;47.064;15.482;2022-09-09T05:32:49;3.13;;;2.10;;
7495;SDS011;3789;47.064;15.482;2022-09-09T05:35:16;3.33;;;1.80;;
7495;SDS011;3789;47.064;15.482;2022-09-09T05:37:45;3.23;;;1.50;;
7495;SDS011;3789;47.064;15.482;2022-09-09T05:40:12;1.80;;;1.37;;
7495;SDS011;3789;47.064;15.482;2022-09-09T05:42:40;2.70;;;1.60;;
7495;SDS011;3789;47.064;15.482;2022-09-09T05:45:07;1.37;;;1.27;;
7495;SDS011;3789;47.064;15.482;2022-09-09T05:47:35;2.60;;;1.37;;
7495;SDS011;3789;47.064;15.482;2022-09-09T05:50:04;1.80;;;1.30;;
7495;SDS011;3789;47.064;15.482;2022-09-09T05:52:31;1.37;;;1.17;;
7495;SDS011;3789;47.064;15.482;2022-09-09T05:54:59;1.30;;;1.20;;
7495;SDS011;3789;47.064;15.482;2022-09-09T05:57:26;1.10;;;1.00;;
7495;SDS011;3789;47.064;15.482;2022-09-09T05:59:53;2.00;;;1.20;;
7495;SDS011;3789;47.064;15.482;2022-09-09T06:02:20;1.30;;;1.20;;
7495;SDS011;3789;47.064;15.482;2022-09-09T06:04:47;1.50;;;1.35;;
7495;SDS011;3789;47.064;15.482;2022-09-09T06:07:32;1.90;;;1.70;;
7495;SDS011;3789;47.064;15.482;2022-09-09T06:10:01;4.32;;;1.67;;
7495;SDS011;3789;47.064;15.482;2022-09-09T06:12:29;3.78;;;1.50;;
7495;SDS011;3789;47.064;15.482;2022-09-09T06:15:00;2.00;;;1.83;;
7495;SDS011;3789;47.064;15.482;2022-09-09T06:17:29;2.80;;;2.15;;
7495;SDS011;3789;47.064;15.482;2022-09-09T06:19:56;2.10;;;1.90;;
7495;SDS011;3789;47.064;15.482;2022-09-09T06:22:23;2.47;;;1.70;;
7495;SDS011;3789;47.064;15.482;2022-09-09T06:24:50;3.40;;;1.95;;
7495;SDS011;3789;47.064;15.482;2022-09-09T06:27:18;2.20;;;1.90;;
7495;SDS011;3789;47.064;15.482;2022-09-09T06:29:45;3.88;;;1.73;;
7495;SDS011;3789;47.064;15.482;2022-09-09T06:32:13;2.90;;;2.15;;
7495;SDS011;3789;47.064;15.482;2022-09-09T06:34:40;2.60;;;1.88;;
7495;SDS011;3789;47.064;15.482;2022-09-09T06:37:08;2.53;;;1.83;;
7495;SDS011;3789;47.064;15.482;2022-09-09T06:39:35;2.28;;;2.08;;
7495;SDS011;3789;47.064;15.482;2022-09-09T06:42:02;2.25;;;2.05;;
7495;SDS011;3789;47.064;15.482;2022-09-09T06:44:30;3.75;;;2.50;;
7495;SDS011;3789;47.064;15.482;2022-09-09T06:47:00;2.55;;;2.05;;
7495;SDS011;3789;47.064;15.482;2022-09-09T06:49:29;3.10;;;2.25;;
7495;SDS011;3789;47.064;15.482;2022-09-09T06:51:58;3.03;;;2.67;;
7495;SDS011;3789;47.064;15.482;2022-09-09T06:54:26;3.10;;;2.15;;
7495;SDS011;3789;47.064;15.482;2022-09-09T06:56:54;2.63;;;2.30;;
7495;SDS011;3789;47.064;15.482;2022-09-09T06:59:22;3.78;;;2.17;;
7495;SDS011;3789;47.064;15.482;2022-09-09T07:01:50;3.92;;;2.55;;
7495;SDS011;3789;47.064;15.482;2022-09-09T07:04:21;2.85;;;2.55;;
7495;SDS011;3789;47.064;15.482;2022-09-09T07:06:50;3.05;;;2.67;;
7495;SDS011;3789;47.064;15.482;2022-09-09T07:09:20;2.78;;;2.47;;
7495;SDS011;3789;47.064;15.482;2022-09-09T07:11:52;3.15;;;2.83;;
7495;SDS011;3789;47.064;15.482;2022-09-09T07:14:22;3.05;;;2.55;;
7495;SDS011;3789;47.064;15.482;2022-09-09T07:16:50;2.50;;;2.30;;
7495;SDS011;3789;47.064;15.482;2022-09-09T07:19:24;3.25;;;2.70;;
7495;SDS011;3789;47.064;15.482;2022-09-09T07:21:51;3.17;;;2.65;;
7495;SDS011;3789;47.064;15.482;2022-09-09T07:24:18;2.60;;;2.40;;
7495;SDS011;3789;47.064;15.482;2022-09-09T07:26:47;4.63;;;2.88;;
7495;SDS011;3789;47.064;15.482;2022-09-09T07:29:15;2.90;;;2.60;;
7495;SDS011;3789;47.064;15.482;2022-09-09T07:31:47;4.28;;;2.70;;
7495;SDS011;3789;47.064;15.482;2022-09-09T07:34:17;5.35;;;2.60;;
7495;SDS011;3789;47.064;15.482;2022-09-09T07:36:45;2.85;;;2.65;;
7495;SDS011;3789;47.064;15.482;2022-09-09T07:39:15;2.53;;;2.33;;
7495;SDS011;3789;47.064;15.482;2022-09-09T07:41:45;5.50;;;2.42;;
7495;SDS011;3789;47.064;15.482;2022-09-09T07:44:15;2.50;;;2.30;;
7495;SDS011;3789;47.064;15.482;2022-09-09T07:46:44;3.13;;;2.33;;
7495;SDS011;3789;47.064;15.482;2022-09-09T07:49:14;2.80;;;2.53;;
7495;SDS011;3789;47.064;15.482;2022-09-09T07:51:49;4.32;;;2.50;;
7495;SDS011;3789;47.064;15.482;2022-09-09T07:54:18;3.78;;;2.63;;
7495;SDS011;3789;47.064;15.482;2022-09-09T07:56:51;3.05;;;2.50;;
7495;SDS011;3789;47.064;15.482;2022-09-09T07:59:19;2.85;;;2.53;;
7495;SDS011;3789;47.064;15.482;2022-09-09T08:01:50;5.80;;;2.88;;
7495;SDS011;3789;47.064;15.482;2022-09-09T08:04:23;3.05;;;2.50;;
7495;SDS011;3789;47.064;15.482;2022-09-09T08:06:53;4.47;;;2.83;;
7495;SDS011;3789;47.064;15.482;2022-09-09T08:09:25;4.32;;;2.95;;
7495;SDS011;3789;47.064;15.482;2022-09-09T08:11:56;5.68;;;3.30;;
7495;SDS011;3789;47.064;15.482;2022-09-09T08:14:23;6.00;;;3.00;;
7495;SDS011;3789;47.064;15.482;2022-09-09T08:16:50;3.80;;;2.90;;
7495;SDS011;3789;47.064;15.482;2022-09-09T08:19:20;6.90;;;2.97;;
7495;SDS011;3789;47.064;15.482;2022-09-09T08:21:50;4.25;;;2.90;;
7495;SDS011;3789;47.064;15.482;2022-09-09T08:24:17;6.55;;;3.00;;
7495;SDS011;3789;47.064;15.482;2022-09-09T08:26:46;4.35;;;3.40;;
7495;SDS011;3789;47.064;15.482;2022-09-09T08:29:18;3.58;;;2.90;;
7495;SDS011;3789;47.064;15.482;2022-09-09T08:31:53;6.25;;;3.22;;
7495;SDS011;3789;47.064;15.482;2022-09-09T08:34:32;4.30;;;2.53;;
7495;SDS011;3789;47.064;15.482;2022-09-09T08:37:00;4.13;;;2.78;;
7495;SDS011;3789;47.064;15.482;2022-09-09T08:39:29;5.55;;;2.83;;
7495;SDS011;3789;47.064;15.482;2022-09-09T08:42:07;4.07;;;3.00;;
7495;SDS011;3789;47.064;15.482;2022-09-09T08:44:50;6.75;;;3.08;;
7495;SDS011;3789;47.064;15.482;2022-09-09T08:47:50;5.38;;;2.90;;
7495;SDS011;3789;47.064;15.482;2022-09-09T08:50:42;5.90;;;3.05;;
7495;SDS011;3789;47.064;15.482;2022-09-09T08:53:22;4.78;;;2.90;;
7495;SDS011;3789;47.064;15.482;2022-09-09T08:58:25;5.13;;;3.00;;
7495;SDS011;3789;47.064;15.482;2022-09-09T09:03:40;3.17;;;2.72;;
7495;SDS011;3789;47.064;15.482;2022-09-09T09:09:23;2.75;;;2.55;;
7495;SDS011;3789;47.064;15.482;2022-09-09T09:15:08;3.25;;;2.78;;
7495;SDS011;3789;47.064;15.482;2022-09-09T09:17:48;2.83;;;2.40;;
7495;SDS011;3789;47.064;15.482;2022-09-09T09:20:30;4.65;;;2.88;;
7495;SDS011;3789;47.064;15.482;2022-09-09T09:23:38;3.33;;;2.50;;
7495;SDS011;3789;47.064;15.482;2022-09-09T09:26:11;2.90;;;2.58;;
7495;SDS011;3789;47.064;15.482;2022-09-09T09:28:38;3.85;;;2.90;;
7495;SDS011;3789;47.064;15.482;2022-09-09T09:31:08;3.28;;;2.97;;
7495;SDS011;3789;47.064;15.482;2022-09-09T09:36:11;3.90;;;2.65;;
7495;SDS011;3789;47.064;15.482;2022-09-09T09:38:53;5.00;;;2.63;;
7495;SDS011;3789;47.064;15.482;2022-09-09T09:41:49;3.83;;;2.58;;
7495;SDS011;3789;47.064;15.482;2022-09-09T09:44:21;3.65;;;2.42;;
7495;SDS011;3789;47.064;15.482;2022-09-09T09:46:52;4.25;;;2.50;;
7495;SDS011;3789;47.064;15.482;2022-09-09T09:49:31;2.80;;;2.28;;
7495;SDS011;3789;47.064;15.482;2022-09-09T09:52:05;3.05;;;2.50;;
7495;SDS011;3789;47.064;15.482;2022-09-09T09:54:39;2.85;;;2.50;;
7495;SDS011;3789;47.064;15.482;2022-09-09T09:57:09;2.90;;;2.30;;
7495;SDS011;3789;47.064;15.482;2022-09-09T09:59:38;3.28;;;2.50;;
7495;SDS011;3789;47.064;15.482;2022-09-09T10:04:39;2.35;;;2.10;;
7495;SDS011;3789;47.064;15.482;2022-09-09T10:07:11;2.55;;;2.35;;
7495;SDS011;3789;47.064;15.482;2022-09-09T10:09:39;2.67;;;2.47;;
7495;SDS011;3789;47.064;15.482;2022-09-09T10:12:24;2.50;;;2.10;;
7495;SDS011;3789;47.064;15.482;2022-09-09T10:15:25;2.30;;;2.10;;
7495;SDS011;3789;47.064;15.482;2022-09-09T10:18:21;5.38;;;2.15;;
7495;SDS011;3789;47.064;15.482;2022-09-09T10:21:20;3.05;;;1.90;;
7495;SDS011;3789;47.064;15.482;2022-09-09T10:24:23;2.72;;;1.80;;
7495;SDS011;3789;47.064;15.482;2022-09-09T10:27:14;2.03;;;1.83;;
7495;SDS011;3789;47.064;15.482;2022-09-09T10:30:06;2.53;;;2.30;;
7495;SDS011;3789;47.064;15.482;2022-09-09T10:33:12;2.30;;;2.10;;
7495;SDS011;3789;47.064;15.482;2022-09-09T10:36:12;2.03;;;1.85;;
7495;SDS011;3789;47.064;15.482;2022-09-09T10:38:48;2.92;;;1.90;;
7495;SDS011;3789;47.064;15.482;2022-09-09T10:47:15;2.05;;;1.90;;
7495;SDS011;3789;47.064;15.482;2022-09-09T10:52:44;3.38;;;2.10;;
7495;SDS011;3789;47.064;15.482;2022-09-09T10:55:38;2.58;;;1.92;;
7495;SDS011;3789;47.064;15.482;2022-09-09T10:58:12;3.85;;;2.30;;
7495;SDS011;3789;47.064;15.482;2022-09-09T11:00:48;2.40;;;2.00;;
7495;SDS011;3789;47.064;15.482;2022-09-09T11:03:24;2.35;;;1.95;;
7495;SDS011;3789;47.064;15.482;2022-09-09T11:06:06;2.30;;;1.90;;
7495;SDS011;3789;47.064;15.482;2022-09-09T11:08:41;3.10;;;1.90;;
7495;SDS011;3789;47.064;15.482;2022-09-09T11:19:28;2.55;;;1.73;;
7495;SDS011;3789;47.064;15.482;2022-09-09T11:22:03;1.98;;;1.73;;
7495;SDS011;3789;47.064;15.482;2022-09-09T11:24:52;1.70;;;1.60;;
7495;SDS011;3789;47.064;15.482;2022-09-09T11:27:23;3.47;;;2.28;;
7495;SDS011;3789;47.064;15.482;2022-09-09T11:35:48;2.00;;;1.90;;
7495;SDS011;3789;47.064;15.482;2022-09-09T11:41:02;4.57;;;1.85;;
7495;SDS011;3789;47.064;15.482;2022-09-09T11:43:34;2.95;;;1.70;;
7495;SDS011;3789;47.064;15.482;2022-09-09T11:46:07;1.70;;;1.60;;
7495;SDS011;3789;47.064;15.482;2022-09-09T11:48:36;2.10;;;1.90;;
7495;SDS011;3789;47.064;15.482;2022-09-09T11:53:49;2.78;;;1.70;;
7495;SDS011;3789;47.064;15.482;2022-09-09T11:57:03;1.95;;;1.75;;
7495;SDS011;3789;47.064;15.482;2022-09-09T11:59:28;1.90;;;1.70;;
7495;SDS011;3789;47.064;15.482;2022-09-09T12:02:01;2.53;;;1.70;;
7495;SDS011;3789;47.064;15.482;2022-09-09T12:07:03;2.92;;;1.98;;
7495;SDS011;3789;47.064;15.482;2022-09-09T12:12:31;1.90;;;1.70;;
7495;SDS011;3789;47.064;15.482;2022-09-09T12:17:43;2.78;;;1.70;;
7495;SDS011;3789;47.064;15.482;2022-09-09T12:28:41;2.08;;;1.88;;
7495;SDS011;3789;47.064;15.482;2022-09-09T12:36:53;2.53;;;1.77;;
7495;SDS011;3789;47.064;15.482;2022-09-09T12:39:35;1.73;;;1.52;;
7495;SDS011;3789;47.064;15.482;2022-09-09T12:42:14;3.40;;;1.73;;
7495;SDS011;3789;47.064;15.482;2022-09-09T12:44:59;2.08;;;1.77;;
7495;SDS011;3789;47.064;15.482;2022-09-09T12:50:04;1.70;;;1.60;;
7495;SDS011;3789;47.064;15.482;2022-09-09T12:52:41;1.63;;;1.52;;
7495;SDS011;3789;47.064;15.482;2022-09-09T12:55:16;2.63;;;1.77;;
7495;SDS011;3789;47.064;15.482;2022-09-09T12:57:45;6.30;;;3.25;;
7495;SDS011;3789;47.064;15.482;2022-09-09T13:00:17;3.15;;;1.80;;
7495;SDS011;3789;47.064;15.482;2022-09-09T13:02:52;2.92;;;1.50;;
7495;SDS011;3789;47.064;15.482;2022-09-09T13:05:23;2.25;;;1.48;;
7495;SDS011;3789;47.064;15.482;2022-09-09T13:08:08;2.47;;;1.50;;
7495;SDS011;3789;47.064;15.482;2022-09-09T13:10:49;2.40;;;1.55;;
7495;SDS011;3789;47.064;15.482;2022-09-09T13:13:39;2.72;;;1.67;;
7495;SDS011;3789;47.064;15.482;2022-09-09T13:16:19;4.07;;;2.08;;
7495;SDS011;3789;47.064;15.482;2022-09-09T13:18:53;1.88;;;1.60;;
7495;SDS011;3789;47.064;15.482;2022-09-09T13:21:35;1.92;;;1.40;;
7495;SDS011;3789;47.064;15.482;2022-09-09T13:24:07;1.30;;;1.20;;
7495;SDS011;3789;47.064;15.482;2022-09-09T13:26:54;1.45;;;1.35;;
7495;SDS011;3789;47.064;15.482;2022-09-09T13:29:23;1.70;;;1.50;;
7495;SDS011;3789;47.064;15.482;2022-09-09T13:31:51;1.60;;;1.50;;
7495;SDS011;3789;47.064;15.482;2022-09-09T13:34:55;1.88;;;1.73;;
7495;SDS011;3789;47.064;15.482;2022-09-09T13:37:34;1.77;;;1.52;;
7495;SDS011;3789;47.064;15.482;2022-09-09T13:40:05;1.63;;;1.52;;
7495;SDS011;3789;47.064;15.482;2022-09-09T13:42:34;2.60;;;2.00;;
7495;SDS011;3789;47.064;15.482;2022-09-09T13:45:05;2.65;;;1.63;;
7495;SDS011;3789;47.064;15.482;2022-09-09T13:47:47;3.03;;;1.63;;
7495;SDS011;3789;47.064;15.482;2022-09-09T13:50:25;1.83;;;1.67;;
7495;SDS011;3789;47.064;15.482;2022-09-09T13:53:07;2.33;;;1.70;;
7495;SDS011;3789;47.064;15.482;2022-09-09T13:55:37;2.95;;;1.73;;
7495;SDS011;3789;47.064;15.482;2022-09-09T13:58:14;1.75;;;1.60;;
7495;SDS011;3789;47.064;15.482;2022-09-09T14:00:47;1.70;;;1.60;;
7495;SDS011;3789;47.064;15.482;2022-09-09T14:03:14;2.85;;;1.50;;
7495;SDS011;3789;47.064;15.482;2022-09-09T14:05:43;1.90;;;1.75;;
7495;SDS011;3789;47.064;15.482;2022-09-09T14:08:16;2.88;;;1.55;;
7495;SDS011;3789;47.064;15.482;2022-09-09T14:10:52;1.88;;;1.50;;
7495;SDS011;3789;47.064;15.482;2022-09-09T14:13:24;2.30;;;2.10;;
7495;SDS011;3789;47.064;15.482;2022-09-09T14:15:52;1.50;;;1.40;;
7495;SDS011;3789;47.064;15.482;2022-09-09T14:18:20;1.70;;;1.60;;
7495;SDS011;3789;47.064;15.482;2022-09-09T14:20:50;2.30;;;1.77;;
7495;SDS011;3789;47.064;15.482;2022-09-09T14:23:19;2.13;;;1.80;;
7495;SDS011;3789;47.064;15.482;2022-09-09T14:25:48;2.97;;;1.95;;
7495;SDS011;3789;47.064;15.482;2022-09-09T14:28:15;2.10;;;1.90;;
7495;SDS011;3789;47.064;15.482;2022-09-09T14:31:04;3.72;;;1.70;;
7495;SDS011;3789;47.064;15.482;2022-09-09T14:33:32;2.75;;;1.75;;
7495;SDS011;3789;47.064;15.482;2022-09-09T14:36:03;2.70;;;1.98;;
7495;SDS011;3789;47.064;15.482;2022-09-09T14:38:31;3.00;;;2.05;;
7495;SDS011;3789;47.064;15.482;2022-09-09T14:41:00;2.88;;;2.22;;
7495;SDS011;3789;47.064;15.482;2022-09-09T14:43:32;2.30;;;2.10;;
7495;SDS011;3789;47.064;15.482;2022-09-09T14:46:13;3.38;;;1.98;;
7495;SDS011;3789;47.064;15.482;2022-09-09T14:48:43;3.70;;;2.30;;
7495;SDS011;3789;47.064;15.482;2022-09-09T14:51:16;2.28;;;2.00;;
7495;SDS011;3789;47.064;15.482;2022-09-09T14:53:51;2.63;;;2.25;;
7495;SDS011;3789;47.064;15.482;2022-09-09T14:56:21;2.33;;;2.13;;
7495;SDS011;3789;47.064;15.482;2022-09-09T14:58:56;2.78;;;2.50;;
7495;SDS011;3789;47.064;15.482;2022-09-09T15:01:25;3.63;;;2.40;;
7495;SDS011;3789;47.064;15.482;2022-09-09T15:03:58;3.92;;;2.42;;
7495;SDS011;3789;47.064;15.482;2022-09-09T15:06:27;3.05;;;2.25;;
7495;SDS011;3789;47.064;15.482;2022-09-09T15:08:59;2.50;;;2.30;;
7495;SDS011;3789;47.064;15.482;2022-09-09T15:11:28;5.32;;;3.03;;
7495;SDS011;3789;47.064;15.482;2022-09-09T15:14:02;3.40;;;2.75;;
7495;SDS011;3789;47.064;15.482;2022-09-09T15:16:32;3.15;;;2.30;;
7495;SDS011;3789;47.064;15.482;2022-09-09T15:19:00;3.28;;;2.53;;
7495;SDS011;3789;47.064;15.482;2022-09-09T15:21:30;4.80;;;2.67;;
7495;SDS011;3789;47.064;15.482;2022-09-09T15:24:00;3.00;;;2.70;;
7495;SDS011;3789;47.064;15.482;2022-09-09T15:26:33;3.58;;;2.90;;
7495;SDS011;3789;47.064;15.482;2022-09-09T15:29:04;2.58;;;2.38;;
7495;SDS011;3789;47.064;15.482;2022-09-09T15:31:32;3.53;;;2.67;;
7495;SDS011;3789;47.064;15.482;2022-09-09T15:34:01;2.80;;;2.55;;
7495;SDS011;3789;47.064;15.482;2022-09-09T15:36:34;3.47;;;2.58;;
7495;SDS011;3789;47.064;15.482;2022-09-09T15:39:04;7.95;;;2.40;;
7495;SDS011;3789;47.064;15.482;2022-09-09T15:41:39;2.38;;;2.17;;
7495;SDS011;3789;47.064;15.482;2022-09-09T15:44:07;2.67;;;2.40;;
7495;SDS011;3789;47.064;15.482;2022-09-09T15:46:41;4.43;;;2.53;;
7495;SDS011;3789;47.064;15.482;2022-09-09T15:49:18;3.75;;;2.67;;
7495;SDS011;3789;47.064;15.482;2022-09-09T15:51:53;3.45;;;2.20;;
7495;SDS011;3789;47.064;15.482;2022-09-09T15:54:24;3.05;;;2.30;;
7495;SDS011;3789;47.064;15.482;2022-09-09T15:56:55;3.70;;;2.30;;
7495;SDS011;3789;47.064;15.482;2022-09-09T15:59:24;2.60;;;2.30;;
7495;SDS011;3789;47.064;15.482;2022-09-09T16:01:54;2.78;;;2.30;;
7495;SDS011;3789;47.064;15.482;2022-09-09T16:04:22;2.40;;;2.00;;
7495;SDS011;3789;47.064;15.482;2022-09-09T16:07:02;2.40;;;2.10;;
7495;SDS011;3789;47.064;15.482;2022-09-09T16:09:31;2.17;;;1.90;;
7495;SDS011;3789;47.064;15.482;2022-09-09T16:12:04;1.98;;;1.75;;
7495;SDS011;3789;47.064;15.482;2022-09-09T16:14:38;2.25;;;1.90;;
7495;SDS011;3789;47.064;15.482;2022-09-09T16:17:05;1.88;;;1.77;;
7495;SDS011;3789;47.064;15.482;2022-09-09T16:19:34;2.05;;;1.88;;
7495;SDS011;3789;47.064;15.482;2022-09-09T16:22:04;2.03;;;1.83;;
7495;SDS011;3789;47.064;15.482;2022-09-09T16:24:34;2.47;;;1.80;;
7495;SDS011;3789;47.064;15.482;2022-09-09T16:27:06;3.03;;;2.00;;
7495;SDS011;3789;47.064;15.482;2022-09-09T16:29:36;1.73;;;1.60;;
7495;SDS011;3789;47.064;15.482;2022-09-09T16:32:03;2.95;;;2.47;;
7495;SDS011;3789;47.064;15.482;2022-09-09T16:34:30;2.08;;;1.70;;
7495;SDS011;3789;47.064;15.482;2022-09-09T16:37:00;1.70;;;1.60;;
7495;SDS011;3789;47.064;15.482;2022-09-09T16:39:29;2.60;;;1.63;;
7495;SDS011;3789;47.064;15.482;2022-09-09T16:41:56;1.73;;;1.63;;
7495;SDS011;3789;47.064;15.482;2022-09-09T16:44:24;2.00;;;1.80;;
7495;SDS011;3789;47.064;15.482;2022-09-09T16:46:53;2.67;;;1.90;;
7495;SDS011;3789;47.064;15.482;2022-09-09T16:49:26;3.00;;;1.83;;
7495;SDS011;3789;47.064;15.482;2022-09-09T16:51:56;1.73;;;1.63;;
7495;SDS011;3789;47.064;15.482;2022-09-09T16:54:24;1.70;;;1.60;;
7495;SDS011;3789;47.064;15.482;2022-09-09T16:56:53;3.10;;;1.98;;
7495;SDS011;3789;47.064;15.482;2022-09-09T16:59:20;2.45;;;1.83;;
7495;SDS011;3789;47.064;15.482;2022-09-09T17:01:50;2.38;;;1.90;;
7495;SDS011;3789;47.064;15.482;2022-09-09T17:04:19;2.30;;;1.70;;
7495;SDS011;3789;47.064;15.482;2022-09-09T17:07:11;2.22;;;1.90;;
7495;SDS011;3789;47.064;15.482;2022-09-09T17:09:38;4.65;;;2.10;;
7495;SDS011;3789;47.064;15.482;2022-09-09T17:12:05;2.67;;;1.90;;
7495;SDS011;3789;47.064;15.482;2022-09-09T17:14:35;2.20;;;2.00;;
7495;SDS011;3789;47.064;15.482;2022-09-09T17:17:02;2.20;;;2.00;;
7495;SDS011;3789;47.064;15.482;2022-09-09T17:19:50;2.72;;;2.10;;
7495;SDS011;3789;47.064;15.482;2022-09-09T17:22:18;2.58;;;2.08;;
7495;SDS011;3789;47.064;15.482;2022-09-09T17:24:46;2.10;;;1.77;;
7495;SDS011;3789;47.064;15.482;2022-09-09T17:27:13;1.88;;;1.73;;
7495;SDS011;3789;47.064;15.482;2022-09-09T17:29:40;2.45;;;2.10;;
7495;SDS011;3789;47.064;15.482;2022-09-09T17:32:08;2.63;;;1.95;;